sensor_id;sensor_type;location;lat;lon;timestamp;P1;durP1;ratioP1;P2;durP2;ratioP2
6517;SDS011;3292;48.944;9.240;2022-10-24T00:02:09;5.90;;;2.23;;
6517;SDS011;3292;48.944;9.240;2022-10-24T00:04:37;4.27;;;1.90;;
6517;SDS011;3292;48.944;9.240;2022-10-24T00:07:05;6.57;;;2.30;;
6517;SDS011;3292;48.944;9.240;2022-10-24T00:09:33;4.53;;;2.00;;
6517;SDS011;3292;48.944;9.240;2022-10-24T00:12:02;3.27;;;1.80;;
6517;SDS011;3292;48.944;9.240;2022-10-24T00:14:30;5.97;;;2.40;;
6517;SDS011;3292;48.944;9.240;2022-10-24T00:16:59;5.83;;;2.17;;
6517;SDS011;3292;48.944;9.240;2022-10-24T00:19:25;3.67;;;1.90;;
6517;SDS011;3292;48.944;9.240;2022-10-24T00:21:52;4.13;;;2.00;;
6517;SDS011;3292;48.944;9.240;2022-10-24T00:24:19;5.97;;;2.10;;
6517;SDS011;3292;48.944;9.240;2022-10-24T00:26:49;4.90;;;2.13;;
6517;SDS011;3292;48.944;9.240;2022-10-24T00:29:15;6.37;;;2.20;;
6517;SDS011;3292;48.944;9.240;2022-10-24T00:31:42;4.10;;;2.10;;
6517;SDS011;3292;48.944;9.240;2022-10-24T00:34:11;4.13;;;1.80;;
6517;SDS011;3292;48.944;9.240;2022-10-24T00:36:37;6.37;;;2.27;;
6517;SDS011;3292;48.944;9.240;2022-10-24T00:39:04;3.17;;;1.90;;
6517;SDS011;3292;48.944;9.240;2022-10-24T00:41:32;3.60;;;1.90;;
6517;SDS011;3292;48.944;9.240;2022-10-24T00:44:13;6.43;;;2.13;;
6517;SDS011;3292;48.944;9.240;2022-10-24T00:46:47;4.07;;;1.97;;
6517;SDS011;3292;48.944;9.240;2022-10-24T00:49:20;6.13;;;2.13;;
6517;SDS011;3292;48.944;9.240;2022-10-24T00:51:50;5.93;;;2.33;;
6517;SDS011;3292;48.944;9.240;2022-10-24T00:54:21;6.03;;;2.43;;
6517;SDS011;3292;48.944;9.240;2022-10-24T00:56:49;3.77;;;2.00;;
6517;SDS011;3292;48.944;9.240;2022-10-24T00:59:25;5.30;;;2.00;;
6517;SDS011;3292;48.944;9.240;2022-10-24T01:01:53;4.80;;;2.60;;
6517;SDS011;3292;48.944;9.240;2022-10-24T01:04:21;3.10;;;1.80;;
6517;SDS011;3292;48.944;9.240;2022-10-24T01:06:51;5.43;;;2.00;;
6517;SDS011;3292;48.944;9.240;2022-10-24T01:09:30;4.57;;;2.00;;
6517;SDS011;3292;48.944;9.240;2022-10-24T01:12:08;5.30;;;2.27;;
6517;SDS011;3292;48.944;9.240;2022-10-24T01:14:50;5.77;;;2.40;;
6517;SDS011;3292;48.944;9.240;2022-10-24T01:17:28;3.87;;;1.90;;
6517;SDS011;3292;48.944;9.240;2022-10-24T01:22:58;4.70;;;2.40;;
6517;SDS011;3292;48.944;9.240;2022-10-24T01:25:41;6.23;;;2.30;;
6517;SDS011;3292;48.944;9.240;2022-10-24T01:28:13;6.70;;;2.13;;
6517;SDS011;3292;48.944;9.240;2022-10-24T01:30:46;6.33;;;2.23;;
6517;SDS011;3292;48.944;9.240;2022-10-24T01:33:17;4.53;;;2.07;;
6517;SDS011;3292;48.944;9.240;2022-10-24T01:35:51;5.10;;;2.30;;
6517;SDS011;3292;48.944;9.240;2022-10-24T01:38:22;5.10;;;2.10;;
6517;SDS011;3292;48.944;9.240;2022-10-24T01:40:54;3.97;;;2.27;;
6517;SDS011;3292;48.944;9.240;2022-10-24T01:43:25;6.27;;;2.27;;
6517;SDS011;3292;48.944;9.240;2022-10-24T01:45:57;5.73;;;2.00;;
6517;SDS011;3292;48.944;9.240;2022-10-24T01:48:27;5.23;;;2.23;;
6517;SDS011;3292;48.944;9.240;2022-10-24T01:50:57;5.30;;;2.43;;
6517;SDS011;3292;48.944;9.240;2022-10-24T01:53:26;5.77;;;2.00;;
6517;SDS011;3292;48.944;9.240;2022-10-24T01:55:55;5.80;;;2.27;;
6517;SDS011;3292;48.944;9.240;2022-10-24T01:58:25;4.50;;;2.33;;
6517;SDS011;3292;48.944;9.240;2022-10-24T02:00:54;3.53;;;2.10;;
6517;SDS011;3292;48.944;9.240;2022-10-24T02:03:31;4.43;;;2.40;;
6517;SDS011;3292;48.944;9.240;2022-10-24T02:06:02;5.63;;;2.57;;
6517;SDS011;3292;48.944;9.240;2022-10-24T02:08:33;4.63;;;2.10;;
6517;SDS011;3292;48.944;9.240;2022-10-24T02:11:04;5.63;;;2.13;;
6517;SDS011;3292;48.944;9.240;2022-10-24T02:13:33;6.87;;;2.70;;
6517;SDS011;3292;48.944;9.240;2022-10-24T02:16:07;7.27;;;2.70;;
6517;SDS011;3292;48.944;9.240;2022-10-24T02:18:35;6.90;;;2.50;;
6517;SDS011;3292;48.944;9.240;2022-10-24T02:21:07;5.47;;;2.43;;
6517;SDS011;3292;48.944;9.240;2022-10-24T02:23:41;5.30;;;2.57;;
6517;SDS011;3292;48.944;9.240;2022-10-24T02:26:13;6.23;;;2.90;;
6517;SDS011;3292;48.944;9.240;2022-10-24T02:28:46;3.70;;;2.47;;
6517;SDS011;3292;48.944;9.240;2022-10-24T02:31:19;5.70;;;2.37;;
6517;SDS011;3292;48.944;9.240;2022-10-24T02:33:48;5.70;;;2.43;;
6517;SDS011;3292;48.944;9.240;2022-10-24T02:36:18;6.57;;;2.60;;
6517;SDS011;3292;48.944;9.240;2022-10-24T02:38:47;8.00;;;2.77;;
6517;SDS011;3292;48.944;9.240;2022-10-24T02:41:18;7.43;;;2.47;;
6517;SDS011;3292;48.944;9.240;2022-10-24T02:43:48;3.53;;;2.30;;
6517;SDS011;3292;48.944;9.240;2022-10-24T02:46:16;7.20;;;2.50;;
6517;SDS011;3292;48.944;9.240;2022-10-24T02:48:46;5.53;;;2.20;;
6517;SDS011;3292;48.944;9.240;2022-10-24T02:51:16;5.33;;;2.43;;
6517;SDS011;3292;48.944;9.240;2022-10-24T02:53:45;6.53;;;2.50;;
6517;SDS011;3292;48.944;9.240;2022-10-24T02:56:12;6.00;;;2.30;;
6517;SDS011;3292;48.944;9.240;2022-10-24T02:58:39;6.00;;;2.10;;
6517;SDS011;3292;48.944;9.240;2022-10-24T03:01:06;8.80;;;2.57;;
6517;SDS011;3292;48.944;9.240;2022-10-24T03:03:34;4.77;;;2.30;;
6517;SDS011;3292;48.944;9.240;2022-10-24T03:06:01;5.50;;;2.30;;
6517;SDS011;3292;48.944;9.240;2022-10-24T03:08:28;7.37;;;2.90;;
6517;SDS011;3292;48.944;9.240;2022-10-24T03:10:54;8.20;;;2.83;;
6517;SDS011;3292;48.944;9.240;2022-10-24T03:13:21;5.80;;;2.40;;
6517;SDS011;3292;48.944;9.240;2022-10-24T03:15:48;7.17;;;2.60;;
6517;SDS011;3292;48.944;9.240;2022-10-24T03:18:15;6.60;;;2.70;;
6517;SDS011;3292;48.944;9.240;2022-10-24T03:20:44;8.27;;;2.70;;
6517;SDS011;3292;48.944;9.240;2022-10-24T03:23:10;5.10;;;2.57;;
6517;SDS011;3292;48.944;9.240;2022-10-24T03:25:37;5.50;;;2.50;;
6517;SDS011;3292;48.944;9.240;2022-10-24T03:28:04;11.00;;;2.97;;
6517;SDS011;3292;48.944;9.240;2022-10-24T03:30:31;6.77;;;2.53;;
6517;SDS011;3292;48.944;9.240;2022-10-24T03:32:58;8.30;;;3.00;;
6517;SDS011;3292;48.944;9.240;2022-10-24T03:35:25;6.00;;;2.57;;
6517;SDS011;3292;48.944;9.240;2022-10-24T03:37:53;7.33;;;2.77;;
6517;SDS011;3292;48.944;9.240;2022-10-24T03:40:20;8.80;;;2.63;;
6517;SDS011;3292;48.944;9.240;2022-10-24T03:42:46;5.70;;;2.87;;
6517;SDS011;3292;48.944;9.240;2022-10-24T03:45:13;8.07;;;3.13;;
6517;SDS011;3292;48.944;9.240;2022-10-24T03:47:40;6.70;;;2.70;;
6517;SDS011;3292;48.944;9.240;2022-10-24T03:50:08;9.30;;;3.20;;
6517;SDS011;3292;48.944;9.240;2022-10-24T03:52:38;8.53;;;3.17;;
6517;SDS011;3292;48.944;9.240;2022-10-24T03:55:07;7.43;;;3.17;;
6517;SDS011;3292;48.944;9.240;2022-10-24T03:57:35;6.70;;;2.93;;
6517;SDS011;3292;48.944;9.240;2022-10-24T04:00:02;6.37;;;3.27;;
6517;SDS011;3292;48.944;9.240;2022-10-24T04:02:30;7.90;;;3.07;;
6517;SDS011;3292;48.944;9.240;2022-10-24T04:04:57;5.60;;;2.70;;
6517;SDS011;3292;48.944;9.240;2022-10-24T04:07:24;9.47;;;3.40;;
6517;SDS011;3292;48.944;9.240;2022-10-24T04:09:52;8.47;;;3.50;;
6517;SDS011;3292;48.944;9.240;2022-10-24T04:12:20;8.47;;;3.20;;
6517;SDS011;3292;48.944;9.240;2022-10-24T04:14:48;8.40;;;3.27;;
6517;SDS011;3292;48.944;9.240;2022-10-24T04:17:15;6.33;;;3.00;;
6517;SDS011;3292;48.944;9.240;2022-10-24T04:19:42;14.07;;;3.40;;
6517;SDS011;3292;48.944;9.240;2022-10-24T04:22:09;10.63;;;3.07;;
6517;SDS011;3292;48.944;9.240;2022-10-24T04:24:35;7.73;;;3.43;;
6517;SDS011;3292;48.944;9.240;2022-10-24T04:27:03;9.73;;;3.37;;
6517;SDS011;3292;48.944;9.240;2022-10-24T04:29:31;7.30;;;3.47;;
6517;SDS011;3292;48.944;9.240;2022-10-24T04:31:59;8.37;;;3.37;;
6517;SDS011;3292;48.944;9.240;2022-10-24T04:34:26;7.57;;;3.00;;
6517;SDS011;3292;48.944;9.240;2022-10-24T04:36:53;7.50;;;3.50;;
6517;SDS011;3292;48.944;9.240;2022-10-24T04:39:20;6.93;;;2.80;;
6517;SDS011;3292;48.944;9.240;2022-10-24T04:41:47;9.37;;;3.60;;
6517;SDS011;3292;48.944;9.240;2022-10-24T04:44:14;8.57;;;3.13;;
6517;SDS011;3292;48.944;9.240;2022-10-24T04:46:42;6.80;;;2.97;;
6517;SDS011;3292;48.944;9.240;2022-10-24T04:49:09;21.90;;;12.37;;
6517;SDS011;3292;48.944;9.240;2022-10-24T04:51:36;15.13;;;8.47;;
6517;SDS011;3292;48.944;9.240;2022-10-24T04:54:03;7.30;;;3.77;;
6517;SDS011;3292;48.944;9.240;2022-10-24T04:56:31;13.33;;;3.97;;
6517;SDS011;3292;48.944;9.240;2022-10-24T04:58:58;9.63;;;3.23;;
6517;SDS011;3292;48.944;9.240;2022-10-24T05:01:25;7.60;;;3.30;;
6517;SDS011;3292;48.944;9.240;2022-10-24T05:03:54;9.53;;;3.10;;
6517;SDS011;3292;48.944;9.240;2022-10-24T05:06:21;8.80;;;3.20;;
6517;SDS011;3292;48.944;9.240;2022-10-24T05:08:48;6.00;;;2.80;;
6517;SDS011;3292;48.944;9.240;2022-10-24T05:11:16;6.97;;;3.33;;
6517;SDS011;3292;48.944;9.240;2022-10-24T05:13:43;9.30;;;3.17;;
6517;SDS011;3292;48.944;9.240;2022-10-24T05:16:10;5.07;;;3.20;;
6517;SDS011;3292;48.944;9.240;2022-10-24T05:18:37;6.23;;;2.97;;
6517;SDS011;3292;48.944;9.240;2022-10-24T05:21:08;5.87;;;3.00;;
6517;SDS011;3292;48.944;9.240;2022-10-24T05:23:34;9.33;;;3.67;;
6517;SDS011;3292;48.944;9.240;2022-10-24T05:26:01;8.33;;;3.33;;
6517;SDS011;3292;48.944;9.240;2022-10-24T05:28:28;6.13;;;2.97;;
6517;SDS011;3292;48.944;9.240;2022-10-24T05:30:55;9.83;;;3.53;;
6517;SDS011;3292;48.944;9.240;2022-10-24T05:33:22;10.57;;;3.40;;
6517;SDS011;3292;48.944;9.240;2022-10-24T05:35:49;5.47;;;3.20;;
6517;SDS011;3292;48.944;9.240;2022-10-24T05:38:17;6.60;;;3.13;;
6517;SDS011;3292;48.944;9.240;2022-10-24T05:40:44;6.50;;;3.40;;
6517;SDS011;3292;48.944;9.240;2022-10-24T05:43:13;8.60;;;3.17;;
6517;SDS011;3292;48.944;9.240;2022-10-24T05:45:40;10.80;;;3.60;;
6517;SDS011;3292;48.944;9.240;2022-10-24T05:48:07;10.60;;;3.43;;
6517;SDS011;3292;48.944;9.240;2022-10-24T05:50:34;12.47;;;3.87;;
6517;SDS011;3292;48.944;9.240;2022-10-24T05:53:01;7.13;;;3.00;;
6517;SDS011;3292;48.944;9.240;2022-10-24T05:55:30;7.97;;;2.93;;
6517;SDS011;3292;48.944;9.240;2022-10-24T05:57:58;10.73;;;3.50;;
6517;SDS011;3292;48.944;9.240;2022-10-24T06:00:25;8.07;;;3.10;;
6517;SDS011;3292;48.944;9.240;2022-10-24T06:02:55;7.77;;;3.00;;
6517;SDS011;3292;48.944;9.240;2022-10-24T06:05:22;8.73;;;3.00;;
6517;SDS011;3292;48.944;9.240;2022-10-24T06:07:49;7.60;;;3.47;;
6517;SDS011;3292;48.944;9.240;2022-10-24T06:10:17;13.27;;;4.20;;
6517;SDS011;3292;48.944;9.240;2022-10-24T06:12:50;7.80;;;3.50;;
6517;SDS011;3292;48.944;9.240;2022-10-24T06:15:17;11.40;;;3.90;;
6517;SDS011;3292;48.944;9.240;2022-10-24T06:17:44;6.70;;;3.37;;
6517;SDS011;3292;48.944;9.240;2022-10-24T06:20:12;10.47;;;3.97;;
6517;SDS011;3292;48.944;9.240;2022-10-24T06:22:40;7.83;;;3.57;;
6517;SDS011;3292;48.944;9.240;2022-10-24T06:25:09;9.30;;;3.47;;
6517;SDS011;3292;48.944;9.240;2022-10-24T06:27:38;6.57;;;3.67;;
6517;SDS011;3292;48.944;9.240;2022-10-24T06:30:08;8.30;;;3.70;;
6517;SDS011;3292;48.944;9.240;2022-10-24T06:32:36;15.70;;;7.63;;
6517;SDS011;3292;48.944;9.240;2022-10-24T06:35:04;6.80;;;4.47;;
6517;SDS011;3292;48.944;9.240;2022-10-24T06:37:31;8.00;;;4.27;;
6517;SDS011;3292;48.944;9.240;2022-10-24T06:39:58;7.83;;;3.63;;
6517;SDS011;3292;48.944;9.240;2022-10-24T06:42:25;7.47;;;3.90;;
6517;SDS011;3292;48.944;9.240;2022-10-24T06:44:55;8.87;;;3.93;;
6517;SDS011;3292;48.944;9.240;2022-10-24T06:47:26;6.73;;;4.20;;
6517;SDS011;3292;48.944;9.240;2022-10-24T06:49:54;14.23;;;5.67;;
6517;SDS011;3292;48.944;9.240;2022-10-24T06:52:23;10.67;;;6.17;;
6517;SDS011;3292;48.944;9.240;2022-10-24T06:54:51;8.00;;;4.43;;
6517;SDS011;3292;48.944;9.240;2022-10-24T06:57:26;8.10;;;4.07;;
6517;SDS011;3292;48.944;9.240;2022-10-24T06:59:53;7.97;;;3.90;;
6517;SDS011;3292;48.944;9.240;2022-10-24T07:02:20;6.63;;;3.57;;
6517;SDS011;3292;48.944;9.240;2022-10-24T07:04:49;7.73;;;3.10;;
6517;SDS011;3292;48.944;9.240;2022-10-24T07:07:17;5.17;;;3.00;;
6517;SDS011;3292;48.944;9.240;2022-10-24T07:09:50;9.07;;;3.53;;
6517;SDS011;3292;48.944;9.240;2022-10-24T07:12:20;9.40;;;4.10;;
6517;SDS011;3292;48.944;9.240;2022-10-24T07:14:47;7.80;;;3.37;;
6517;SDS011;3292;48.944;9.240;2022-10-24T07:17:15;6.23;;;3.50;;
6517;SDS011;3292;48.944;9.240;2022-10-24T07:19:43;12.00;;;3.67;;
6517;SDS011;3292;48.944;9.240;2022-10-24T07:22:11;9.00;;;3.87;;
6517;SDS011;3292;48.944;9.240;2022-10-24T07:24:38;11.43;;;3.90;;
6517;SDS011;3292;48.944;9.240;2022-10-24T07:27:06;7.67;;;4.10;;
6517;SDS011;3292;48.944;9.240;2022-10-24T07:29:36;8.87;;;4.00;;
6517;SDS011;3292;48.944;9.240;2022-10-24T07:32:06;11.00;;;3.80;;
6517;SDS011;3292;48.944;9.240;2022-10-24T07:34:33;7.00;;;3.70;;
6517;SDS011;3292;48.944;9.240;2022-10-24T07:37:04;7.57;;;3.67;;
6517;SDS011;3292;48.944;9.240;2022-10-24T07:39:32;8.20;;;3.90;;
6517;SDS011;3292;48.944;9.240;2022-10-24T07:41:59;7.70;;;3.80;;
6517;SDS011;3292;48.944;9.240;2022-10-24T07:44:30;11.30;;;4.00;;
6517;SDS011;3292;48.944;9.240;2022-10-24T07:46:58;9.77;;;3.77;;
6517;SDS011;3292;48.944;9.240;2022-10-24T07:49:25;8.60;;;3.70;;
6517;SDS011;3292;48.944;9.240;2022-10-24T07:51:52;9.20;;;3.60;;
6517;SDS011;3292;48.944;9.240;2022-10-24T07:54:19;7.00;;;3.93;;
6517;SDS011;3292;48.944;9.240;2022-10-24T07:56:51;9.50;;;3.73;;
6517;SDS011;3292;48.944;9.240;2022-10-24T07:59:18;6.40;;;4.20;;
6517;SDS011;3292;48.944;9.240;2022-10-24T08:01:44;8.57;;;3.60;;
6517;SDS011;3292;48.944;9.240;2022-10-24T08:04:11;6.47;;;3.67;;
6517;SDS011;3292;48.944;9.240;2022-10-24T08:06:39;10.87;;;3.80;;
6517;SDS011;3292;48.944;9.240;2022-10-24T08:09:08;8.40;;;3.33;;
6517;SDS011;3292;48.944;9.240;2022-10-24T08:11:39;11.30;;;3.63;;
6517;SDS011;3292;48.944;9.240;2022-10-24T08:14:07;10.27;;;3.70;;
6517;SDS011;3292;48.944;9.240;2022-10-24T08:16:34;11.83;;;4.20;;
6517;SDS011;3292;48.944;9.240;2022-10-24T08:19:02;10.40;;;3.90;;
6517;SDS011;3292;48.944;9.240;2022-10-24T08:21:29;11.53;;;4.13;;
6517;SDS011;3292;48.944;9.240;2022-10-24T08:23:57;8.83;;;4.00;;
6517;SDS011;3292;48.944;9.240;2022-10-24T08:26:24;10.47;;;3.60;;
6517;SDS011;3292;48.944;9.240;2022-10-24T08:28:51;7.17;;;3.53;;
6517;SDS011;3292;48.944;9.240;2022-10-24T08:31:23;8.20;;;3.43;;
6517;SDS011;3292;48.944;9.240;2022-10-24T08:33:51;12.63;;;4.23;;
6517;SDS011;3292;48.944;9.240;2022-10-24T08:36:20;11.80;;;4.40;;
6517;SDS011;3292;48.944;9.240;2022-10-24T08:38:58;7.60;;;3.83;;
6517;SDS011;3292;48.944;9.240;2022-10-24T08:41:28;6.30;;;3.20;;
6517;SDS011;3292;48.944;9.240;2022-10-24T08:44:03;7.27;;;3.57;;
6517;SDS011;3292;48.944;9.240;2022-10-24T08:46:42;6.80;;;3.43;;
6517;SDS011;3292;48.944;9.240;2022-10-24T08:49:25;6.53;;;3.13;;
6517;SDS011;3292;48.944;9.240;2022-10-24T08:51:58;6.30;;;3.27;;
6517;SDS011;3292;48.944;9.240;2022-10-24T08:54:32;6.90;;;3.27;;
6517;SDS011;3292;48.944;9.240;2022-10-24T08:57:16;8.03;;;3.00;;
6517;SDS011;3292;48.944;9.240;2022-10-24T08:59:50;6.37;;;3.07;;
6517;SDS011;3292;48.944;9.240;2022-10-24T09:02:21;6.40;;;3.30;;
6517;SDS011;3292;48.944;9.240;2022-10-24T09:04:51;6.97;;;3.13;;
6517;SDS011;3292;48.944;9.240;2022-10-24T09:07:22;6.70;;;3.07;;
6517;SDS011;3292;48.944;9.240;2022-10-24T09:09:49;7.47;;;3.43;;
6517;SDS011;3292;48.944;9.240;2022-10-24T09:12:21;6.93;;;2.70;;
6517;SDS011;3292;48.944;9.240;2022-10-24T09:14:52;6.83;;;3.10;;
6517;SDS011;3292;48.944;9.240;2022-10-24T09:17:30;6.43;;;3.40;;
6517;SDS011;3292;48.944;9.240;2022-10-24T09:20:03;7.80;;;3.30;;
6517;SDS011;3292;48.944;9.240;2022-10-24T09:22:41;6.63;;;3.07;;
6517;SDS011;3292;48.944;9.240;2022-10-24T09:25:11;5.77;;;2.87;;
6517;SDS011;3292;48.944;9.240;2022-10-24T09:27:41;7.57;;;3.23;;
6517;SDS011;3292;48.944;9.240;2022-10-24T09:30:13;7.80;;;3.27;;
6517;SDS011;3292;48.944;9.240;2022-10-24T09:32:45;5.93;;;2.93;;
6517;SDS011;3292;48.944;9.240;2022-10-24T09:35:15;5.03;;;2.97;;
6517;SDS011;3292;48.944;9.240;2022-10-24T09:37:46;5.13;;;2.90;;
6517;SDS011;3292;48.944;9.240;2022-10-24T09:40:18;7.80;;;3.50;;
6517;SDS011;3292;48.944;9.240;2022-10-24T09:42:48;7.60;;;3.20;;
6517;SDS011;3292;48.944;9.240;2022-10-24T09:45:33;7.23;;;3.50;;
6517;SDS011;3292;48.944;9.240;2022-10-24T09:48:06;8.23;;;3.10;;
6517;SDS011;3292;48.944;9.240;2022-10-24T09:50:48;6.83;;;3.60;;
6517;SDS011;3292;48.944;9.240;2022-10-24T09:53:21;3.50;;;3.00;;
6517;SDS011;3292;48.944;9.240;2022-10-24T09:55:54;7.77;;;3.23;;
6517;SDS011;3292;48.944;9.240;2022-10-24T09:58:28;6.17;;;3.07;;
6517;SDS011;3292;48.944;9.240;2022-10-24T10:00:59;5.37;;;3.17;;
6517;SDS011;3292;48.944;9.240;2022-10-24T10:03:29;8.03;;;3.63;;
6517;SDS011;3292;48.944;9.240;2022-10-24T10:05:56;6.50;;;3.30;;
6517;SDS011;3292;48.944;9.240;2022-10-24T10:08:26;8.20;;;3.23;;
6517;SDS011;3292;48.944;9.240;2022-10-24T10:10:58;6.10;;;2.73;;
6517;SDS011;3292;48.944;9.240;2022-10-24T10:13:26;8.43;;;3.20;;
6517;SDS011;3292;48.944;9.240;2022-10-24T10:15:55;4.77;;;3.00;;
6517;SDS011;3292;48.944;9.240;2022-10-24T10:18:33;9.60;;;3.43;;
6517;SDS011;3292;48.944;9.240;2022-10-24T10:21:11;5.47;;;2.93;;
6517;SDS011;3292;48.944;9.240;2022-10-24T10:23:40;6.63;;;2.67;;
6517;SDS011;3292;48.944;9.240;2022-10-24T10:26:17;8.20;;;3.20;;
6517;SDS011;3292;48.944;9.240;2022-10-24T10:28:50;7.10;;;3.30;;
6517;SDS011;3292;48.944;9.240;2022-10-24T10:31:21;7.70;;;3.40;;
6517;SDS011;3292;48.944;9.240;2022-10-24T10:34:05;7.47;;;3.10;;
6517;SDS011;3292;48.944;9.240;2022-10-24T10:36:50;6.13;;;3.00;;
6517;SDS011;3292;48.944;9.240;2022-10-24T10:39:51;8.93;;;3.30;;
6517;SDS011;3292;48.944;9.240;2022-10-24T10:42:43;5.80;;;2.70;;
6517;SDS011;3292;48.944;9.240;2022-10-24T10:45:19;6.73;;;3.30;;
6517;SDS011;3292;48.944;9.240;2022-10-24T10:48:01;4.90;;;2.70;;
6517;SDS011;3292;48.944;9.240;2022-10-24T10:50:42;8.53;;;2.97;;
6517;SDS011;3292;48.944;9.240;2022-10-24T10:53:20;7.00;;;2.97;;
6517;SDS011;3292;48.944;9.240;2022-10-24T10:55:58;6.30;;;2.70;;
6517;SDS011;3292;48.944;9.240;2022-10-24T10:58:41;5.37;;;3.20;;
6517;SDS011;3292;48.944;9.240;2022-10-24T11:01:19;6.80;;;3.20;;
6517;SDS011;3292;48.944;9.240;2022-10-24T11:03:57;6.97;;;2.83;;
6517;SDS011;3292;48.944;9.240;2022-10-24T11:06:51;8.23;;;3.30;;
6517;SDS011;3292;48.944;9.240;2022-10-24T11:09:30;7.33;;;2.77;;
6517;SDS011;3292;48.944;9.240;2022-10-24T11:12:10;5.07;;;2.97;;
6517;SDS011;3292;48.944;9.240;2022-10-24T11:14:48;6.40;;;2.30;;
6517;SDS011;3292;48.944;9.240;2022-10-24T11:17:22;6.70;;;2.70;;
6517;SDS011;3292;48.944;9.240;2022-10-24T11:19:55;3.77;;;2.60;;
6517;SDS011;3292;48.944;9.240;2022-10-24T11:22:35;5.53;;;2.40;;
6517;SDS011;3292;48.944;9.240;2022-10-24T11:25:08;2.47;;;2.07;;
6517;SDS011;3292;48.944;9.240;2022-10-24T11:27:46;4.03;;;2.30;;
6517;SDS011;3292;48.944;9.240;2022-10-24T11:30:29;6.57;;;2.37;;
6517;SDS011;3292;48.944;9.240;2022-10-24T11:33:02;5.07;;;2.67;;
6517;SDS011;3292;48.944;9.240;2022-10-24T11:35:41;6.07;;;2.83;;
6517;SDS011;3292;48.944;9.240;2022-10-24T11:38:22;4.27;;;2.10;;
6517;SDS011;3292;48.944;9.240;2022-10-24T11:40:55;5.90;;;2.40;;
6517;SDS011;3292;48.944;9.240;2022-10-24T11:43:31;3.13;;;2.10;;
6517;SDS011;3292;48.944;9.240;2022-10-24T11:46:09;6.40;;;2.73;;
6517;SDS011;3292;48.944;9.240;2022-10-24T11:48:45;4.03;;;2.33;;
6517;SDS011;3292;48.944;9.240;2022-10-24T11:51:27;5.97;;;2.53;;
6517;SDS011;3292;48.944;9.240;2022-10-24T11:54:02;3.40;;;2.23;;
6517;SDS011;3292;48.944;9.240;2022-10-24T11:56:33;5.23;;;2.30;;
6517;SDS011;3292;48.944;9.240;2022-10-24T11:59:11;4.47;;;2.70;;
6517;SDS011;3292;48.944;9.240;2022-10-24T12:08:10;4.87;;;2.20;;
6517;SDS011;3292;48.944;9.240;2022-10-24T12:11:16;4.47;;;2.40;;
6517;SDS011;3292;48.944;9.240;2022-10-24T12:14:05;4.50;;;2.30;;
6517;SDS011;3292;48.944;9.240;2022-10-24T12:17:14;3.90;;;2.10;;
6517;SDS011;3292;48.944;9.240;2022-10-24T12:19:52;3.67;;;2.30;;
6517;SDS011;3292;48.944;9.240;2022-10-24T12:22:29;4.87;;;3.00;;
6517;SDS011;3292;48.944;9.240;2022-10-24T12:25:01;4.43;;;3.43;;
6517;SDS011;3292;48.944;9.240;2022-10-24T12:27:33;3.57;;;2.70;;
6517;SDS011;3292;48.944;9.240;2022-10-24T12:30:12;4.40;;;3.47;;
6517;SDS011;3292;48.944;9.240;2022-10-24T12:32:43;4.23;;;2.73;;
6517;SDS011;3292;48.944;9.240;2022-10-24T12:35:32;5.23;;;2.90;;
6517;SDS011;3292;48.944;9.240;2022-10-24T12:38:17;4.60;;;2.37;;
6517;SDS011;3292;48.944;9.240;2022-10-24T12:41:04;4.03;;;2.50;;
6517;SDS011;3292;48.944;9.240;2022-10-24T12:43:38;2.90;;;2.40;;
6517;SDS011;3292;48.944;9.240;2022-10-24T12:49:14;3.57;;;2.80;;
6517;SDS011;3292;48.944;9.240;2022-10-24T12:51:45;3.37;;;2.00;;
6517;SDS011;3292;48.944;9.240;2022-10-24T12:54:15;5.17;;;3.23;;
6517;SDS011;3292;48.944;9.240;2022-10-24T12:59:47;5.03;;;2.27;;
6517;SDS011;3292;48.944;9.240;2022-10-24T13:05:26;5.17;;;2.53;;
6517;SDS011;3292;48.944;9.240;2022-10-24T13:08:20;4.23;;;2.53;;
6517;SDS011;3292;48.944;9.240;2022-10-24T13:11:03;5.70;;;2.77;;
6517;SDS011;3292;48.944;9.240;2022-10-24T13:16:38;5.20;;;2.03;;
6517;SDS011;3292;48.944;9.240;2022-10-24T13:19:13;6.47;;;2.60;;
6517;SDS011;3292;48.944;9.240;2022-10-24T13:21:44;5.73;;;2.17;;
6517;SDS011;3292;48.944;9.240;2022-10-24T13:24:22;4.67;;;2.40;;
6517;SDS011;3292;48.944;9.240;2022-10-24T13:30:01;8.90;;;3.10;;
6517;SDS011;3292;48.944;9.240;2022-10-24T13:32:44;5.33;;;2.20;;
6517;SDS011;3292;48.944;9.240;2022-10-24T13:35:12;4.67;;;2.63;;
6517;SDS011;3292;48.944;9.240;2022-10-24T13:37:49;5.03;;;2.60;;
6517;SDS011;3292;48.944;9.240;2022-10-24T13:40:22;3.37;;;3.00;;
6517;SDS011;3292;48.944;9.240;2022-10-24T13:42:55;7.27;;;2.90;;
6517;SDS011;3292;48.944;9.240;2022-10-24T13:45:25;5.10;;;3.47;;
6517;SDS011;3292;48.944;9.240;2022-10-24T13:48:00;4.53;;;3.50;;
6517;SDS011;3292;48.944;9.240;2022-10-24T13:50:35;4.77;;;2.60;;
6517;SDS011;3292;48.944;9.240;2022-10-24T13:53:11;5.70;;;3.10;;
6517;SDS011;3292;48.944;9.240;2022-10-24T13:55:41;4.80;;;2.80;;
6517;SDS011;3292;48.944;9.240;2022-10-24T13:58:11;3.97;;;2.70;;
6517;SDS011;3292;48.944;9.240;2022-10-24T14:00:44;3.10;;;2.30;;
6517;SDS011;3292;48.944;9.240;2022-10-24T14:03:20;3.87;;;2.27;;
6517;SDS011;3292;48.944;9.240;2022-10-24T14:05:50;5.80;;;2.67;;
6517;SDS011;3292;48.944;9.240;2022-10-24T14:08:21;6.43;;;3.13;;
6517;SDS011;3292;48.944;9.240;2022-10-24T14:10:56;4.70;;;2.70;;
6517;SDS011;3292;48.944;9.240;2022-10-24T14:13:42;5.07;;;2.37;;
6517;SDS011;3292;48.944;9.240;2022-10-24T14:16:14;2.93;;;2.50;;
6517;SDS011;3292;48.944;9.240;2022-10-24T14:18:43;4.70;;;2.40;;
6517;SDS011;3292;48.944;9.240;2022-10-24T14:21:15;5.27;;;2.40;;
6517;SDS011;3292;48.944;9.240;2022-10-24T14:26:33;4.93;;;2.47;;
6517;SDS011;3292;48.944;9.240;2022-10-24T14:29:03;3.57;;;2.40;;
6517;SDS011;3292;48.944;9.240;2022-10-24T14:31:31;4.77;;;2.57;;
6517;SDS011;3292;48.944;9.240;2022-10-24T14:34:03;3.50;;;2.20;;
6517;SDS011;3292;48.944;9.240;2022-10-24T14:36:34;5.50;;;2.10;;
6517;SDS011;3292;48.944;9.240;2022-10-24T14:39:04;4.03;;;2.20;;
6517;SDS011;3292;48.944;9.240;2022-10-24T14:41:33;4.03;;;2.00;;
6517;SDS011;3292;48.944;9.240;2022-10-24T14:44:04;6.30;;;2.30;;
6517;SDS011;3292;48.944;9.240;2022-10-24T14:46:34;3.93;;;2.30;;
6517;SDS011;3292;48.944;9.240;2022-10-24T14:51:59;4.07;;;2.00;;
6517;SDS011;3292;48.944;9.240;2022-10-24T14:54:35;3.40;;;1.90;;
6517;SDS011;3292;48.944;9.240;2022-10-24T14:57:03;4.27;;;1.93;;
6517;SDS011;3292;48.944;9.240;2022-10-24T14:59:32;3.67;;;1.97;;
6517;SDS011;3292;48.944;9.240;2022-10-24T15:02:17;3.53;;;2.37;;
6517;SDS011;3292;48.944;9.240;2022-10-24T15:04:49;3.97;;;2.07;;
6517;SDS011;3292;48.944;9.240;2022-10-24T15:07:26;2.30;;;2.00;;
6517;SDS011;3292;48.944;9.240;2022-10-24T15:09:55;3.33;;;1.97;;
6517;SDS011;3292;48.944;9.240;2022-10-24T15:12:26;4.73;;;1.90;;
6517;SDS011;3292;48.944;9.240;2022-10-24T15:17:44;2.63;;;2.00;;
6517;SDS011;3292;48.944;9.240;2022-10-24T15:20:13;2.30;;;1.77;;
6517;SDS011;3292;48.944;9.240;2022-10-24T15:22:45;5.07;;;2.10;;
6517;SDS011;3292;48.944;9.240;2022-10-24T15:25:18;2.63;;;2.10;;
6517;SDS011;3292;48.944;9.240;2022-10-24T15:27:46;2.60;;;2.07;;
6517;SDS011;3292;48.944;9.240;2022-10-24T15:30:16;2.27;;;1.90;;
6517;SDS011;3292;48.944;9.240;2022-10-24T15:32:52;3.97;;;2.27;;
6517;SDS011;3292;48.944;9.240;2022-10-24T15:35:22;5.33;;;2.30;;
6517;SDS011;3292;48.944;9.240;2022-10-24T15:37:53;3.77;;;2.30;;
6517;SDS011;3292;48.944;9.240;2022-10-24T15:40:23;3.60;;;2.20;;
6517;SDS011;3292;48.944;9.240;2022-10-24T15:42:57;3.60;;;2.30;;
6517;SDS011;3292;48.944;9.240;2022-10-24T15:45:25;5.13;;;2.30;;
6517;SDS011;3292;48.944;9.240;2022-10-24T15:47:55;4.50;;;1.93;;
6517;SDS011;3292;48.944;9.240;2022-10-24T15:50:24;2.57;;;2.23;;
6517;SDS011;3292;48.944;9.240;2022-10-24T15:52:53;3.97;;;2.03;;
6517;SDS011;3292;48.944;9.240;2022-10-24T15:55:23;3.40;;;2.10;;
6517;SDS011;3292;48.944;9.240;2022-10-24T15:57:51;3.37;;;2.20;;
6517;SDS011;3292;48.944;9.240;2022-10-24T16:00:24;3.50;;;2.00;;
6517;SDS011;3292;48.944;9.240;2022-10-24T16:02:57;4.63;;;2.10;;
6517;SDS011;3292;48.944;9.240;2022-10-24T16:05:33;4.10;;;2.33;;
6517;SDS011;3292;48.944;9.240;2022-10-24T16:08:05;5.40;;;2.37;;
6517;SDS011;3292;48.944;9.240;2022-10-24T16:10:37;2.47;;;2.10;;
6517;SDS011;3292;48.944;9.240;2022-10-24T16:13:06;2.07;;;1.70;;
6517;SDS011;3292;48.944;9.240;2022-10-24T16:15:48;3.60;;;2.10;;